Aérodrome :
LOGIN :

S'inscrire | Disclaimer

   EN    FR    IT 

 










Légende :    VFR   VFR Marginal   IFR   IFR Intensif   IFR Très Intensif
Visi : 
Plafond : 
>= 8 km
>= 3000ft
5 à 8 km
1000 à 3000 ft
1500m à 5 km
500 à 1000 ft
800 à 1500m
200 à 500 ft
< 800m
< 200 ft
Symboles :   Orages  Brouillard  Fortes neiges  Fortes précipitations  Vent > 20 kt
SIGMETs :   Divers  Orages  Givrage  Turbulence  Onde Orograph.  Cendres Volcan.






- Altitude de l'aérodrome : 306 ft
- Code IATA : EMA


EGNX - Nottingham East Midlands

DERNIER METAR :
  • 261450Z 29016G26KT 9999 SCT035 06/M01 Q1005

METARs EXPIRÉS :
  • 261420Z 29014KT 9999 SCT033 07/M00 Q1004
  • 261350Z 30017KT 260V330 9999 SCT028 06/M00 Q1004
  • 261320Z 30017KT 9999 SCT020 06/01 Q1004
  • 261250Z 29013KT 9999 FEW016 BKN023 06/02 Q1004
  • 261220Z 27018G28KT 9999 4000S VCSH SCT012 SCT025CB 04/01 Q1003

TAF TAF EGNX
Valide du 26 à 12h jusqu'au 27 à 12h UTC


261104Z 2612/2712 27015KT 9999 BKN020
TEMPO 2612/2615 7000 SHRA
PROB30
TEMPO 2612/2614 30020G30KT 4000 SHRAGS BKN014 BKN025CB
BECMG 2621/2624 20012KT
BECMG 2701/2703 -RA BKN010
BECMG 2703/2706 7000 RA BKN008
TEMPO 2705/2711 1200 RASN BKN002
BECMG 2710/2712 30014KT SCT020
ATIS : +44 1332 852 852 (ext 3201)



MET'MAP, la Météo Aéronautique d'un coup d'oeil ! - Copyright ORBIFLY Décembre 2007 - Disclaimer

ORBIFLY MET'MAP TEAM :

Programmation & Développement : Alexandra Zaïnal
Sur une idée originale de : Baudouin d'Aumeries
Assistance à la programmation : Marc-Olivier Méhu
Soutien technique & logistique : Manuel Goepfert

Contact : metmap@orbifly.com




SOURCES & CREDITS :

   NOAA